Time;durP1;ratioP1;P1;durP2;ratioP2;P2;SDS_P1;SDS_P2;PMS_P1;PMS_P2;Temp;Humidity;BMP_temperature;BMP_pressure;BME280_temperature;BME280_humidity;BME280_pressure;Samples;Min_cycle;Max_cycle;Signal;HPM_P1;HPM_P2
2023/12/22 00:00:32;;;;;;;20.87;18.63;;;;;;;;;;4990198;28;20437;-39
2023/12/22 00:03:00;;;;;;;21.20;19.20;;;;;;;;;;4990554;28;20500;-39
2023/12/22 00:05:27;;;;;;;20.03;18.47;;;;;;;;;;4981954;28;20438;-39
2023/12/22 00:07:55;;;;;;;20.97;18.10;;;;;;;;;;4989123;28;20469;-41
2023/12/22 00:10:23;;;;;;;27.33;18.37;;;;;;;;;;4989790;28;20462;-39
2023/12/22 00:12:52;;;;;;;17.53;16.20;;;;;;;;;;4989160;28;20445;-39
2023/12/22 00:15:19;;;;;;;20.17;18.07;;;;;;;;;;4989476;28;21016;-39
2023/12/22 00:17:47;;;;;;;24.63;18.67;;;;;;;;;;4989293;28;20508;-38
2023/12/22 00:20:15;;;;;;;18.93;17.43;;;;;;;;;;4988750;28;21197;-38
2023/12/22 00:22:43;;;;;;;20.13;18.27;;;;;;;;;;4989334;28;20496;-42
2023/12/22 00:25:11;;;;;;;23.80;20.10;;;;;;;;;;4989574;28;20528;-39
2023/12/22 00:27:39;;;;;;;18.37;17.03;;;;;;;;;;4988988;28;20453;-39
2023/12/22 00:30:09;;;;;;;18.93;17.53;;;;;;;;;;4988888;28;20554;-40
2023/12/22 00:32:37;;;;;;;28.00;17.73;;;;;;;;;;4989272;28;20433;-39
2023/12/22 00:35:06;;;;;;;18.77;17.30;;;;;;;;;;4989419;28;20481;-39
2023/12/22 00:37:33;;;;;;;19.53;18.10;;;;;;;;;;4988808;28;20469;-40
2023/12/22 00:40:02;;;;;;;27.23;18.80;;;;;;;;;;4988343;28;20462;-40
2023/12/22 00:42:29;;;;;;;18.33;17.03;;;;;;;;;;4988909;28;20438;-38
2023/12/22 00:44:57;;;;;;;18.27;16.93;;;;;;;;;;4989064;28;20444;-41
2023/12/22 00:47:27;;;;;;;26.10;17.43;;;;;;;;;;4988402;28;20902;-38
2023/12/22 00:49:54;;;;;;;19.10;17.03;;;;;;;;;;4988797;28;20833;-41
2023/12/22 00:52:23;;;;;;;18.17;15.90;;;;;;;;;;4988993;28;20541;-39
2023/12/22 00:54:50;;;;;;;20.73;17.40;;;;;;;;;;4988475;28;20430;-40
2023/12/22 00:57:18;;;;;;;34.30;18.97;;;;;;;;;;4988622;28;21036;-40
2023/12/22 00:59:48;;;;;;;19.93;17.67;;;;;;;;;;4988300;28;20473;-40
2023/12/22 01:02:16;;;;;;;20.43;18.50;;;;;;;;;;4988147;28;20440;-39
2023/12/22 01:04:45;;;;;;;20.43;18.53;;;;;;;;;;4988895;28;20541;-42
2023/12/22 01:07:14;;;;;;;20.10;18.30;;;;;;;;;;4988471;28;20458;-41
2023/12/22 01:09:41;;;;;;;21.27;19.17;;;;;;;;;;4987940;28;20480;-40
2023/12/22 01:12:10;;;;;;;19.93;17.80;;;;;;;;;;4988623;28;20445;-40
2023/12/22 01:14:38;;;;;;;25.63;19.93;;;;;;;;;;4988254;28;20438;-39
2023/12/22 01:17:05;;;;;;;24.00;19.77;;;;;;;;;;4988501;28;20549;-41
2023/12/22 01:19:33;;;;;;;24.97;22.10;;;;;;;;;;4987549;28;20896;-39
2023/12/22 01:22:02;;;;;;;27.03;20.90;;;;;;;;;;4988192;28;20508;-40
2023/12/22 01:24:30;;;;;;;22.73;20.47;;;;;;;;;;4988174;28;20470;-39
2023/12/22 01:26:58;;;;;;;21.97;19.93;;;;;;;;;;4987727;28;20996;-40
2023/12/22 01:29:26;;;;;;;28.13;20.60;;;;;;;;;;4987198;28;20501;-40
2023/12/22 01:31:53;;;;;;;22.97;20.67;;;;;;;;;;4988107;28;20438;-39
2023/12/22 01:34:21;;;;;;;25.07;19.53;;;;;;;;;;4988204;28;20451;-40
2023/12/22 01:36:49;;;;;;;20.43;19.10;;;;;;;;;;4987359;28;20457;-40
2023/12/22 01:39:18;;;;;;;21.93;17.93;;;;;;;;;;4987436;28;20478;-39
2023/12/22 01:41:46;;;;;;;24.30;18.40;;;;;;;;;;4989286;28;20945;-39
2023/12/22 01:44:14;;;;;;;19.47;17.70;;;;;;;;;;4987297;28;20517;-39
2023/12/22 01:46:41;;;;;;;21.47;19.20;;;;;;;;;;4987824;28;20472;-40
2023/12/22 01:49:09;;;;;;;20.30;18.37;;;;;;;;;;4987132;28;20465;-40
2023/12/22 01:51:39;;;;;;;25.80;20.10;;;;;;;;;;4980855;28;20446;-39
2023/12/22 01:54:07;;;;;;;21.73;19.53;;;;;;;;;;4986501;28;20438;-39
2023/12/22 01:56:36;;;;;;;23.27;21.10;;;;;;;;;;4987283;28;20453;-43
2023/12/22 01:59:03;;;;;;;25.70;23.63;;;;;;;;;;4987483;28;20912;-40
2023/12/22 02:01:32;;;;;;;25.90;23.40;;;;;;;;;;4987610;28;20501;-39
2023/12/22 02:04:00;;;;;;;28.27;24.50;;;;;;;;;;4987695;28;20434;-39
2023/12/22 02:06:30;;;;;;;25.73;23.03;;;;;;;;;;4987230;28;20462;-40
2023/12/22 02:08:58;;;;;;;23.53;21.73;;;;;;;;;;4987230;28;20543;-41
2023/12/22 02:11:26;;;;;;;22.97;20.70;;;;;;;;;;4987361;28;20469;-40
2023/12/22 02:13:55;;;;;;;25.60;23.83;;;;;;;;;;4987982;28;20519;-39
2023/12/22 02:16:27;;;;;;;24.33;22.70;;;;;;;;;;4987157;28;20814;-39
2023/12/22 02:18:56;;;;;;;27.10;25.57;;;;;;;;;;4987077;28;20547;-45
2023/12/22 02:21:24;;;;;;;26.70;25.37;;;;;;;;;;4987485;28;20441;-40
2023/12/22 02:23:53;;;;;;;29.60;27.20;;;;;;;;;;4987547;28;20537;-40
2023/12/22 02:26:24;;;;;;;31.47;29.67;;;;;;;;;;4986956;28;20457;-41
2023/12/22 02:28:53;;;;;;;31.30;29.57;;;;;;;;;;4986922;28;20486;-40
2023/12/22 02:31:25;;;;;;;29.73;28.23;;;;;;;;;;4987728;28;20439;-42
2023/12/22 02:33:55;;;;;;;33.17;30.67;;;;;;;;;;4988385;28;21012;-38
2023/12/22 02:36:23;;;;;;;35.27;32.90;;;;;;;;;;4987259;28;20473;-42
2023/12/22 02:38:52;;;;;;;32.80;31.00;;;;;;;;;;4987255;28;20574;-39
2023/12/22 02:41:21;;;;;;;45.33;42.53;;;;;;;;;;4987040;28;20430;-39
2023/12/22 02:43:49;;;;;;;53.27;50.20;;;;;;;;;;4987598;28;20466;-40
2023/12/22 02:46:16;;;;;;;58.87;54.30;;;;;;;;;;4986764;28;20489;-40
2023/12/22 02:48:44;;;;;;;60.47;57.60;;;;;;;;;;4985953;28;20466;-39
2023/12/22 02:51:12;;;;;;;64.67;61.57;;;;;;;;;;4987211;28;20504;-40
2023/12/22 02:53:39;;;;;;;64.07;60.53;;;;;;;;;;4979688;28;20450;-39
2023/12/22 02:56:07;;;;;;;65.00;61.70;;;;;;;;;;4986825;28;20552;-39
2023/12/22 02:58:36;;;;;;;67.43;63.90;;;;;;;;;;4986775;28;20478;-39
2023/12/22 03:01:04;;;;;;;61.80;58.00;;;;;;;;;;4987098;28;20466;-40
2023/12/22 03:03:31;;;;;;;62.17;58.50;;;;;;;;;;4991110;28;20469;-40
2023/12/22 03:05:59;;;;;;;70.00;66.60;;;;;;;;;;4993442;28;20450;-39
2023/12/22 03:08:27;;;;;;;79.47;75.80;;;;;;;;;;4992623;28;20893;-39
2023/12/22 03:10:54;;;;;;;91.97;87.93;;;;;;;;;;4993741;28;20509;-41
2023/12/22 03:13:22;;;;;;;87.67;83.57;;;;;;;;;;4993212;28;20438;-39
2023/12/22 03:15:51;;;;;;;312.30;298.83;;;;;;;;;;4993185;28;20512;-40
2023/12/22 03:18:18;;;;;;;399.70;381.70;;;;;;;;;;4992851;28;20604;-39
2023/12/22 03:20:46;;;;;;;364.40;348.90;;;;;;;;;;4993316;28;20569;-40
2023/12/22 03:23:13;;;;;;;386.67;370.70;;;;;;;;;;4993573;28;20856;-40
2023/12/22 03:25:41;;;;;;;350.93;335.67;;;;;;;;;;4993175;28;20441;-41
2023/12/22 03:28:09;;;;;;;311.67;299.37;;;;;;;;;;4992922;28;20450;-40
2023/12/22 03:30:37;;;;;;;289.70;278.40;;;;;;;;;;4993414;28;20806;-40
2023/12/22 03:33:07;;;;;;;282.83;271.87;;;;;;;;;;4993316;28;20444;-39
2023/12/22 03:35:34;;;;;;;291.83;280.33;;;;;;;;;;4992738;28;20449;-40
2023/12/22 03:38:02;;;;;;;288.53;277.47;;;;;;;;;;4992759;28;20496;-40
2023/12/22 03:40:29;;;;;;;259.00;248.83;;;;;;;;;;4993259;28;20555;-39
2023/12/22 03:42:57;;;;;;;253.37;243.27;;;;;;;;;;4993852;28;20433;-40
2023/12/22 03:45:25;;;;;;;293.43;282.17;;;;;;;;;;4993154;28;20449;-39
2023/12/22 03:47:52;;;;;;;301.23;289.03;;;;;;;;;;4993380;28;20448;-39
2023/12/22 03:50:22;;;;;;;269.83;258.90;;;;;;;;;;5018637;28;20460;-40
2023/12/22 03:52:50;;;;;;;241.40;232.00;;;;;;;;;;5032718;28;20451;-39
2023/12/22 03:55:17;;;;;;;264.23;254.83;;;;;;;;;;5032252;28;20428;-40
2023/12/22 03:57:45;;;;;;;289.07;277.67;;;;;;;;;;5024595;28;20467;-39
2023/12/22 04:00:14;;;;;;;357.27;342.30;;;;;;;;;;5032024;28;20483;-39
2023/12/22 04:02:42;;;;;;;362.07;346.93;;;;;;;;;;5032685;28;20438;-39
2023/12/22 04:05:11;;;;;;;339.93;326.27;;;;;;;;;;5032087;28;20458;-40
2023/12/22 04:07:41;;;;;;;343.57;329.33;;;;;;;;;;5031819;28;20491;-39
2023/12/22 04:10:09;;;;;;;337.27;323.50;;;;;;;;;;5031351;28;20468;-39
2023/12/22 04:12:36;;;;;;;354.53;339.73;;;;;;;;;;5032105;28;20442;-39
2023/12/22 04:15:05;;;;;;;406.80;390.03;;;;;;;;;;5028961;28;20527;-43
2023/12/22 04:17:32;;;;;;;397.00;380.73;;;;;;;;;;5029169;28;20491;-40
2023/12/22 04:20:00;;;;;;;404.40;387.13;;;;;;;;;;5028222;28;20504;-39
2023/12/22 04:22:28;;;;;;;407.13;389.00;;;;;;;;;;5026657;28;20436;-38
2023/12/22 04:24:57;;;;;;;392.80;375.00;;;;;;;;;;5029059;28;20436;-42
2023/12/22 04:27:24;;;;;;;394.07;377.10;;;;;;;;;;5029136;28;20495;-40
2023/12/22 04:29:53;;;;;;;384.17;368.20;;;;;;;;;;5028251;28;21275;-39
2023/12/22 04:32:21;;;;;;;393.63;376.33;;;;;;;;;;5028730;28;20935;-39
2023/12/22 04:34:48;;;;;;;385.53;368.87;;;;;;;;;;5021344;28;20436;-40
2023/12/22 04:37:16;;;;;;;383.70;367.40;;;;;;;;;;5028824;28;20448;-41
2023/12/22 04:39:43;;;;;;;388.50;371.67;;;;;;;;;;5028766;28;20476;-39
2023/12/22 04:42:12;;;;;;;341.90;326.50;;;;;;;;;;5028625;28;20534;-39
2023/12/22 04:44:40;;;;;;;356.20;339.43;;;;;;;;;;5039389;23;20497;-39
2023/12/22 04:47:07;;;;;;;342.70;327.23;;;;;;;;;;4994685;28;21038;-40
2023/12/22 04:49:35;;;;;;;319.77;305.47;;;;;;;;;;4995450;28;20472;-38
2023/12/22 04:52:03;;;;;;;307.27;294.33;;;;;;;;;;5015297;28;20442;-38
2023/12/22 04:54:30;;;;;;;320.73;306.13;;;;;;;;;;5014857;28;21090;-39
2023/12/22 04:56:58;;;;;;;326.27;310.90;;;;;;;;;;5015728;28;20449;-38
2023/12/22 04:59:27;;;;;;;354.30;337.73;;;;;;;;;;5005869;28;20528;-39
2023/12/22 05:01:55;;;;;;;340.30;324.33;;;;;;;;;;5014574;28;20437;-39
2023/12/22 05:04:22;;;;;;;349.77;332.47;;;;;;;;;;5014749;28;20453;-42
2023/12/22 05:06:50;;;;;;;316.67;302.37;;;;;;;;;;5015002;28;20444;-38
2023/12/22 05:09:18;;;;;;;290.03;276.07;;;;;;;;;;5013388;28;21289;-39
2023/12/22 05:11:45;;;;;;;167.93;159.67;;;;;;;;;;5006344;28;20496;-38
2023/12/22 05:14:13;;;;;;;115.83;109.07;;;;;;;;;;5008667;28;20454;-38
2023/12/22 05:16:42;;;;;;;59.47;55.33;;;;;;;;;;4994916;28;20434;-38
2023/12/22 05:19:09;;;;;;;53.60;50.33;;;;;;;;;;4994033;28;20466;-38
2023/12/22 05:21:37;;;;;;;53.77;49.47;;;;;;;;;;5003876;28;20472;-40
2023/12/22 05:24:05;;;;;;;44.93;41.03;;;;;;;;;;5008541;28;20466;-39
2023/12/22 05:26:33;;;;;;;43.93;40.77;;;;;;;;;;4995513;28;20444;-38
2023/12/22 05:29:00;;;;;;;41.17;38.13;;;;;;;;;;5013257;28;20469;-43
2023/12/22 05:31:28;;;;;;;45.80;42.63;;;;;;;;;;5013039;28;20444;-40
2023/12/22 05:33:58;;;;;;;47.37;43.80;;;;;;;;;;5013839;28;20445;-38
2023/12/22 05:36:25;;;;;;;47.93;44.33;;;;;;;;;;5004910;28;20531;-38
2023/12/22 05:38:53;;;;;;;51.47;47.83;;;;;;;;;;5009366;28;20473;-38
2023/12/22 05:41:20;;;;;;;51.47;46.43;;;;;;;;;;5001046;28;20473;-41
2023/12/22 05:43:48;;;;;;;53.97;48.60;;;;;;;;;;5010752;28;20437;-38
2023/12/22 05:46:16;;;;;;;45.93;42.10;;;;;;;;;;5008487;28;20448;-39
2023/12/22 05:48:43;;;;;;;47.13;43.83;;;;;;;;;;5004051;28;20911;-40
2023/12/22 05:51:13;;;;;;;47.30;43.60;;;;;;;;;;5008390;28;20438;-38
2023/12/22 05:53:41;;;;;;;50.97;46.67;;;;;;;;;;4995402;28;20487;-38
2023/12/22 05:56:18;;;;;;;44.73;40.50;;;;;;;;;;5013587;28;20433;-38
2023/12/22 05:58:45;;;;;;;49.80;46.00;;;;;;;;;;5010719;28;20464;-38
2023/12/22 06:01:15;;;;;;;47.13;43.93;;;;;;;;;;5002137;28;20552;-39
2023/12/22 06:03:43;;;;;;;49.67;46.67;;;;;;;;;;4993846;28;20493;-39
2023/12/22 06:06:11;;;;;;;48.13;44.93;;;;;;;;;;5001393;28;20438;-39
2023/12/22 06:08:39;;;;;;;49.20;46.33;;;;;;;;;;5001073;28;20572;-39
2023/12/22 06:11:07;;;;;;;47.83;44.93;;;;;;;;;;4999471;28;20505;-38
2023/12/22 06:13:35;;;;;;;52.63;49.13;;;;;;;;;;5013385;28;20437;-40
2023/12/22 06:16:02;;;;;;;47.23;44.23;;;;;;;;;;5004413;28;20460;-39
2023/12/22 06:18:30;;;;;;;45.63;43.50;;;;;;;;;;5004465;28;20477;-39
2023/12/22 06:20:57;;;;;;;44.73;42.40;;;;;;;;;;5012714;28;20476;-41
2023/12/22 06:23:26;;;;;;;41.30;38.87;;;;;;;;;;5006017;28;20466;-39
2023/12/22 06:25:57;;;;;;;48.73;45.63;;;;;;;;;;5005669;28;21067;-39
2023/12/22 06:28:25;;;;;;;54.83;51.93;;;;;;;;;;5012997;28;20476;-38
2023/12/22 06:30:53;;;;;;;47.97;44.80;;;;;;;;;;5012618;28;20467;-38
2023/12/22 06:33:21;;;;;;;46.80;43.90;;;;;;;;;;5006037;28;20686;-38
2023/12/22 06:35:53;;;;;;;55.43;51.80;;;;;;;;;;4996451;28;20485;-38
2023/12/22 06:38:21;;;;;;;46.83;44.33;;;;;;;;;;5011340;28;20457;-40
2023/12/22 06:40:50;;;;;;;52.40;49.70;;;;;;;;;;5013214;28;21103;-39
2023/12/22 06:43:18;;;;;;;52.97;50.00;;;;;;;;;;5004502;28;20460;-38
2023/12/22 06:45:45;;;;;;;52.03;48.80;;;;;;;;;;5011707;28;20641;-38
2023/12/22 06:48:13;;;;;;;47.23;44.63;;;;;;;;;;5004031;28;20487;-39
2023/12/22 06:50:44;;;;;;;48.87;46.10;;;;;;;;;;5003602;28;20749;-38
2023/12/22 06:53:12;;;;;;;52.23;49.37;;;;;;;;;;4992602;28;20434;-38
2023/12/22 06:55:53;;;;;;;58.40;55.10;;;;;;;;;;5003701;28;20465;-39
2023/12/22 06:58:25;;;;;;;59.33;54.93;;;;;;;;;;5011745;28;20798;-39
2023/12/22 07:00:52;;;;;;;60.20;56.70;;;;;;;;;;5001073;28;20469;-38
2023/12/22 07:03:20;;;;;;;60.13;56.63;;;;;;;;;;4999436;28;20432;-38
2023/12/22 07:05:49;;;;;;;61.40;57.63;;;;;;;;;;4993493;28;20530;-39
2023/12/22 07:08:16;;;;;;;56.43;52.40;;;;;;;;;;4998238;28;20464;-38
2023/12/22 07:10:45;;;;;;;51.20;47.40;;;;;;;;;;5004167;28;20921;-38
2023/12/22 07:13:14;;;;;;;59.17;52.93;;;;;;;;;;5012489;28;20440;-39
2023/12/22 07:15:44;;;;;;;61.87;58.67;;;;;;;;;;5011116;28;20868;-39
2023/12/22 07:18:13;;;;;;;227.10;215.67;;;;;;;;;;4995413;28;20430;-39
2023/12/22 07:20:40;;;;;;;459.83;435.73;;;;;;;;;;5005625;28;20452;-40
2023/12/22 07:23:10;;;;;;;474.63;447.83;;;;;;;;;;5001501;28;20458;-39
2023/12/22 07:25:39;;;;;;;469.67;442.90;;;;;;;;;;5002949;28;20468;-38
2023/12/22 07:28:07;;;;;;;474.47;447.70;;;;;;;;;;5010970;28;20560;-38
2023/12/22 07:30:36;;;;;;;459.17;433.90;;;;;;;;;;5003241;28;20470;-38
2023/12/22 07:33:04;;;;;;;442.93;419.40;;;;;;;;;;5002253;28;20600;-37
2023/12/22 07:35:31;;;;;;;436.30;414.43;;;;;;;;;;5000864;28;20493;-42
2023/12/22 07:37:59;;;;;;;431.87;410.60;;;;;;;;;;5013169;28;21140;-38
2023/12/22 07:40:26;;;;;;;438.27;416.27;;;;;;;;;;5006896;28;20513;-38
2023/12/22 07:42:54;;;;;;;434.03;412.57;;;;;;;;;;4994216;28;20480;-39
2023/12/22 07:45:22;;;;;;;414.30;393.30;;;;;;;;;;5008475;28;20544;-39
2023/12/22 07:47:51;;;;;;;414.17;392.60;;;;;;;;;;5013449;28;20512;-39
2023/12/22 07:50:19;;;;;;;407.47;386.83;;;;;;;;;;5015079;28;20445;-39
2023/12/22 07:52:47;;;;;;;415.00;395.60;;;;;;;;;;5016991;28;20520;-38
2023/12/22 07:55:15;;;;;;;426.87;406.20;;;;;;;;;;5003443;28;20486;-39
2023/12/22 07:57:43;;;;;;;412.47;393.67;;;;;;;;;;5007275;28;20437;-38
2023/12/22 08:00:11;;;;;;;418.67;398.63;;;;;;;;;;5012434;28;20463;-40
2023/12/22 08:02:38;;;;;;;404.70;385.83;;;;;;;;;;4997896;28;20505;-39
2023/12/22 08:05:07;;;;;;;405.00;385.43;;;;;;;;;;5005365;28;20540;-38
2023/12/22 08:07:35;;;;;;;408.93;390.83;;;;;;;;;;4997689;28;20433;-38
2023/12/22 08:10:03;;;;;;;412.57;393.40;;;;;;;;;;4989766;28;20458;-39
2023/12/22 08:12:32;;;;;;;409.20;390.17;;;;;;;;;;4997985;28;20779;-38
2023/12/22 08:14:59;;;;;;;416.43;397.03;;;;;;;;;;4996896;28;20453;-38
2023/12/22 08:17:28;;;;;;;424.03;405.23;;;;;;;;;;4997744;28;20481;-38
2023/12/22 08:19:56;;;;;;;410.80;392.23;;;;;;;;;;4997031;28;20833;-41
2023/12/22 08:22:34;;;;;;;417.50;398.43;;;;;;;;;;4997278;28;20462;-39
2023/12/22 08:25:02;;;;;;;417.33;398.30;;;;;;;;;;4990412;28;20458;-40
2023/12/22 08:27:30;;;;;;;420.60;401.30;;;;;;;;;;4997931;28;21360;-39
2023/12/22 08:29:58;;;;;;;396.77;378.60;;;;;;;;;;4997224;28;20501;-41
2023/12/22 08:32:25;;;;;;;402.30;383.70;;;;;;;;;;4998537;28;20441;-38
2023/12/22 08:34:53;;;;;;;403.67;384.00;;;;;;;;;;4997086;28;20453;-41
2023/12/22 08:37:21;;;;;;;407.10;387.83;;;;;;;;;;4996987;28;20470;-38
2023/12/22 08:39:50;;;;;;;391.07;372.87;;;;;;;;;;4995754;28;20492;-40
2023/12/22 08:42:18;;;;;;;396.97;378.43;;;;;;;;;;4997025;28;20474;-38
2023/12/22 08:44:45;;;;;;;420.97;401.20;;;;;;;;;;4978323;28;20529;-38
2023/12/22 08:47:13;;;;;;;394.07;375.77;;;;;;;;;;4995334;28;20512;-39
2023/12/22 08:49:41;;;;;;;409.50;388.07;;;;;;;;;;4996965;28;20504;-38
2023/12/22 08:52:09;;;;;;;376.07;360.00;;;;;;;;;;4997682;28;20521;-38
2023/12/22 08:54:36;;;;;;;393.33;376.73;;;;;;;;;;4997078;28;20489;-40
2023/12/22 08:57:05;;;;;;;381.53;365.13;;;;;;;;;;4996124;28;20933;-40
2023/12/22 08:59:33;;;;;;;373.10;356.60;;;;;;;;;;4996819;28;20524;-38
2023/12/22 09:02:00;;;;;;;405.87;386.50;;;;;;;;;;4995736;28;20474;-41
2023/12/22 09:04:28;;;;;;;419.07;399.47;;;;;;;;;;4996010;28;21018;-42
2023/12/22 09:06:56;;;;;;;429.30;410.23;;;;;;;;;;4997035;28;20517;-39
2023/12/22 09:09:24;;;;;;;415.60;397.67;;;;;;;;;;4997272;28;20803;-38
2023/12/22 09:11:53;;;;;;;409.10;390.87;;;;;;;;;;4997334;28;20446;-40
2023/12/22 09:14:22;;;;;;;417.10;397.77;;;;;;;;;;4996945;28;20485;-39
2023/12/22 09:16:50;;;;;;;402.23;384.00;;;;;;;;;;4995892;28;20528;-38
2023/12/22 09:19:17;;;;;;;394.67;376.27;;;;;;;;;;4996811;28;20434;-43
2023/12/22 09:21:45;;;;;;;394.93;376.83;;;;;;;;;;5002680;28;20430;-38
2023/12/22 09:24:13;;;;;;;405.00;386.63;;;;;;;;;;4995740;28;20500;-38
2023/12/22 09:26:40;;;;;;;398.23;379.70;;;;;;;;;;4997628;28;20454;-38
2023/12/22 09:29:08;;;;;;;405.53;387.07;;;;;;;;;;4997285;28;20446;-41
2023/12/22 09:31:37;;;;;;;398.57;380.50;;;;;;;;;;4996027;28;20485;-40
2023/12/22 09:34:05;;;;;;;404.17;385.23;;;;;;;;;;4996578;28;20450;-42
2023/12/22 09:36:33;;;;;;;395.53;376.83;;;;;;;;;;4996678;28;20493;-41
2023/12/22 09:39:00;;;;;;;390.03;372.40;;;;;;;;;;4996033;28;20446;-38
2023/12/22 09:41:28;;;;;;;390.70;372.40;;;;;;;;;;4996664;28;21017;-39
2023/12/22 09:43:57;;;;;;;393.30;375.17;;;;;;;;;;4997376;28;20489;-41
2023/12/22 09:46:26;;;;;;;388.23;370.50;;;;;;;;;;4996066;28;20828;-38
2023/12/22 09:48:55;;;;;;;395.23;376.90;;;;;;;;;;4996915;28;20525;-38
2023/12/22 09:51:23;;;;;;;395.53;377.73;;;;;;;;;;4996705;28;20814;-41
2023/12/22 09:53:52;;;;;;;391.50;373.23;;;;;;;;;;4996093;28;20430;-41
2023/12/22 09:56:20;;;;;;;394.30;375.30;;;;;;;;;;4995952;28;20465;-40
2023/12/22 09:58:48;;;;;;;384.90;367.20;;;;;;;;;;4996156;28;20454;-38
2023/12/22 10:01:16;;;;;;;397.80;379.13;;;;;;;;;;4996249;28;20523;-44
2023/12/22 10:03:44;;;;;;;391.97;374.03;;;;;;;;;;4995660;28;20473;-39
2023/12/22 10:06:16;;;;;;;396.30;378.17;;;;;;;;;;4995038;28;20486;-38
2023/12/22 10:08:45;;;;;;;402.80;383.70;;;;;;;;;;4996258;28;20426;-44
2023/12/22 10:11:13;;;;;;;391.37;373.27;;;;;;;;;;4995608;28;20433;-40
2023/12/22 10:13:42;;;;;;;398.70;380.33;;;;;;;;;;4995177;28;20485;-38
2023/12/22 10:16:09;;;;;;;394.20;376.20;;;;;;;;;;4994995;28;20514;-38
2023/12/22 10:18:37;;;;;;;394.60;376.63;;;;;;;;;;4994859;28;20426;-38
2023/12/22 10:21:05;;;;;;;399.13;381.30;;;;;;;;;;4996157;28;20438;-38
2023/12/22 10:23:34;;;;;;;396.13;377.47;;;;;;;;;;4995539;28;20589;-38
2023/12/22 10:26:01;;;;;;;401.63;382.43;;;;;;;;;;4994650;28;20493;-39
2023/12/22 10:28:29;;;;;;;391.17;373.80;;;;;;;;;;4994756;28;20490;-39
2023/12/22 10:30:59;;;;;;;394.60;376.90;;;;;;;;;;4995452;28;20927;-38
2023/12/22 10:33:26;;;;;;;406.13;387.37;;;;;;;;;;4994875;28;20430;-38
2023/12/22 10:35:54;;;;;;;390.70;373.37;;;;;;;;;;4994181;28;20470;-38
2023/12/22 10:38:22;;;;;;;388.37;371.20;;;;;;;;;;4994970;28;20437;-38
2023/12/22 10:40:51;;;;;;;383.13;365.70;;;;;;;;;;5002649;28;20433;-39
2023/12/22 10:43:19;;;;;;;390.70;373.53;;;;;;;;;;4995459;28;20837;-38
2023/12/22 10:45:46;;;;;;;397.67;380.30;;;;;;;;;;4990303;28;20852;-39
2023/12/22 10:48:14;;;;;;;392.07;374.47;;;;;;;;;;4989297;28;20446;-38
2023/12/22 10:50:42;;;;;;;403.40;385.40;;;;;;;;;;4989410;28;20434;-39
2023/12/22 10:53:11;;;;;;;405.47;387.73;;;;;;;;;;4989109;28;20457;-38
2023/12/22 10:55:43;;;;;;;394.20;377.33;;;;;;;;;;4988502;28;20466;-41
2023/12/22 10:58:13;;;;;;;412.17;393.70;;;;;;;;;;4988564;28;20859;-41
2023/12/22 11:00:42;;;;;;;395.63;378.80;;;;;;;;;;4990112;28;21004;-40
2023/12/22 11:03:13;;;;;;;402.47;385.47;;;;;;;;;;4989675;28;20478;-41
2023/12/22 11:05:44;;;;;;;392.77;376.13;;;;;;;;;;4990027;28;20462;-39
2023/12/22 11:08:13;;;;;;;399.30;382.50;;;;;;;;;;4989543;28;20618;-39
2023/12/22 11:10:42;;;;;;;387.73;371.07;;;;;;;;;;4989042;28;20438;-39
2023/12/22 11:13:10;;;;;;;401.97;385.23;;;;;;;;;;4989392;28;20437;-42
2023/12/22 11:15:40;;;;;;;387.90;371.63;;;;;;;;;;4988999;28;20466;-42
2023/12/22 11:18:08;;;;;;;389.17;372.40;;;;;;;;;;4989633;28;20524;-41
2023/12/22 11:20:36;;;;;;;410.37;391.23;;;;;;;;;;4989221;28;20473;-40
2023/12/22 11:23:05;;;;;;;423.53;403.03;;;;;;;;;;4989412;28;20437;-40
2023/12/22 11:25:33;;;;;;;430.13;410.03;;;;;;;;;;4991608;28;20476;-39
2023/12/22 11:28:01;;;;;;;420.87;401.37;;;;;;;;;;4993353;28;20448;-39
2023/12/22 11:30:30;;;;;;;434.43;414.80;;;;;;;;;;4993376;28;20440;-41
2023/12/22 11:32:59;;;;;;;445.73;425.33;;;;;;;;;;4992687;28;20472;-38
2023/12/22 11:35:28;;;;;;;436.40;416.33;;;;;;;;;;4992917;28;20465;-39
2023/12/22 11:38:01;;;;;;;436.10;415.93;;;;;;;;;;4992223;28;20438;-40
2023/12/22 11:40:29;;;;;;;426.10;406.83;;;;;;;;;;4992977;28;20441;-38
2023/12/22 11:42:57;;;;;;;417.97;399.63;;;;;;;;;;4992916;28;20433;-39
2023/12/22 11:45:25;;;;;;;397.00;380.03;;;;;;;;;;4991413;28;20564;-38
2023/12/22 11:47:53;;;;;;;410.93;390.93;;;;;;;;;;4993225;28;20461;-39
2023/12/22 11:50:30;;;;;;;392.93;375.73;;;;;;;;;;4994172;28;20437;-39
2023/12/22 11:53:18;;;;;;;397.67;380.00;;;;;;;;;;4993810;28;20983;-40
2023/12/22 11:55:58;;;;;;;373.53;357.50;;;;;;;;;;4991632;28;20469;-39
2023/12/22 11:58:39;;;;;;;272.63;262.50;;;;;;;;;;4992759;28;20812;-38
2023/12/22 12:01:08;;;;;;;157.00;150.60;;;;;;;;;;4991709;28;20438;-39
2023/12/22 12:03:41;;;;;;;90.50;86.90;;;;;;;;;;4991873;28;20469;-39
2023/12/22 12:06:15;;;;;;;49.60;47.37;;;;;;;;;;4990751;28;20880;-40
2023/12/22 12:08:42;;;;;;;53.13;50.23;;;;;;;;;;4991608;28;20437;-38
2023/12/22 12:11:10;;;;;;;43.80;41.73;;;;;;;;;;4991970;28;20870;-40
2023/12/22 12:13:42;;;;;;;50.73;47.73;;;;;;;;;;4991886;28;20445;-38
2023/12/22 12:16:11;;;;;;;52.57;49.70;;;;;;;;;;4991562;28;20504;-39
2023/12/22 12:18:39;;;;;;;67.03;63.83;;;;;;;;;;4992309;28;20442;-39
2023/12/22 12:21:08;;;;;;;160.67;153.77;;;;;;;;;;4990961;28;20429;-38
2023/12/22 12:23:38;;;;;;;428.57;410.47;;;;;;;;;;4991460;28;20438;-38
2023/12/22 12:26:07;;;;;;;469.10;447.60;;;;;;;;;;4990521;28;21148;-40
2023/12/22 12:28:36;;;;;;;463.53;442.43;;;;;;;;;;4990618;28;20512;-38
2023/12/22 12:31:04;;;;;;;459.93;440.30;;;;;;;;;;4991720;28;20434;-38
2023/12/22 12:33:32;;;;;;;457.40;438.23;;;;;;;;;;4990789;28;20473;-39
2023/12/22 12:36:02;;;;;;;448.77;429.63;;;;;;;;;;4989181;28;20980;-38
2023/12/22 12:38:37;;;;;;;438.27;419.77;;;;;;;;;;4991093;28;20521;-39
2023/12/22 12:41:06;;;;;;;445.53;427.23;;;;;;;;;;4990808;28;20524;-38
2023/12/22 12:43:34;;;;;;;433.90;415.67;;;;;;;;;;4990591;28;20477;-40
2023/12/22 12:46:04;;;;;;;421.17;403.63;;;;;;;;;;4989968;28;21099;-39
2023/12/22 12:48:33;;;;;;;401.80;385.23;;;;;;;;;;4990827;28;20529;-38
2023/12/22 12:51:04;;;;;;;367.33;352.57;;;;;;;;;;4989873;28;20437;-38
2023/12/22 12:53:32;;;;;;;373.63;358.47;;;;;;;;;;4991087;28;20448;-38
2023/12/22 12:56:02;;;;;;;354.40;339.50;;;;;;;;;;4989997;28;20471;-38
2023/12/22 12:58:31;;;;;;;368.60;354.10;;;;;;;;;;4990339;28;20516;-38
2023/12/22 13:01:06;;;;;;;374.70;358.40;;;;;;;;;;4990359;28;21172;-38
2023/12/22 13:03:34;;;;;;;392.10;374.97;;;;;;;;;;4990265;28;20450;-40
2023/12/22 13:06:08;;;;;;;390.53;373.63;;;;;;;;;;4989506;28;20465;-39
2023/12/22 13:08:37;;;;;;;391.10;374.00;;;;;;;;;;4990726;28;20438;-38
2023/12/22 13:11:11;;;;;;;377.63;361.53;;;;;;;;;;4990260;28;21005;-39
2023/12/22 13:13:44;;;;;;;376.07;359.83;;;;;;;;;;4990706;28;20442;-38
2023/12/22 13:16:12;;;;;;;367.87;351.87;;;;;;;;;;4989668;28;20517;-39
2023/12/22 13:18:40;;;;;;;373.33;357.63;;;;;;;;;;4990234;28;20438;-40
2023/12/22 13:21:08;;;;;;;373.13;356.93;;;;;;;;;;4997968;28;20465;-39
2023/12/22 13:23:36;;;;;;;367.60;352.10;;;;;;;;;;4991360;28;20473;-39
2023/12/22 13:26:03;;;;;;;351.80;337.20;;;;;;;;;;4989696;28;20469;-38
2023/12/22 13:28:31;;;;;;;342.17;328.57;;;;;;;;;;4990079;28;20517;-40
2023/12/22 13:31:00;;;;;;;346.60;331.40;;;;;;;;;;4990640;28;20502;-40
2023/12/22 13:33:28;;;;;;;334.57;320.13;;;;;;;;;;4990917;28;20438;-38
2023/12/22 13:35:58;;;;;;;342.10;327.53;;;;;;;;;;4990899;28;20473;-39
2023/12/22 13:38:25;;;;;;;336.93;323.63;;;;;;;;;;4990527;28;20449;-38
2023/12/22 13:40:53;;;;;;;313.27;300.40;;;;;;;;;;4990246;28;20438;-39
2023/12/22 13:43:20;;;;;;;334.40;320.60;;;;;;;;;;4991768;28;20442;-38
2023/12/22 13:45:50;;;;;;;342.40;328.23;;;;;;;;;;4989946;28;20541;-40
2023/12/22 13:48:20;;;;;;;343.50;328.70;;;;;;;;;;4990266;28;20987;-40
2023/12/22 13:50:55;;;;;;;351.50;335.30;;;;;;;;;;4990428;28;20492;-38
2023/12/22 13:53:23;;;;;;;359.83;342.83;;;;;;;;;;4990650;28;20997;-39
2023/12/22 13:55:54;;;;;;;363.30;347.43;;;;;;;;;;4989496;28;20980;-41
2023/12/22 13:58:22;;;;;;;364.27;348.30;;;;;;;;;;4991054;28;20473;-38
2023/12/22 14:00:50;;;;;;;368.67;352.67;;;;;;;;;;4990268;28;20438;-41
2023/12/22 14:03:21;;;;;;;372.20;355.30;;;;;;;;;;4990241;28;21060;-38
2023/12/22 14:05:49;;;;;;;362.63;346.60;;;;;;;;;;4990640;28;20470;-39
2023/12/22 14:08:17;;;;;;;369.50;353.70;;;;;;;;;;4990810;28;20434;-46